Time;durP1;ratioP1;P1;durP2;ratioP2;P2;SDS_P1;SDS_P2;PMS_P1;PMS_P2;Temp;Humidity;BMP_temperature;BMP_pressure;BME280_temperature;BME280_humidity;BME280_pressure;Samples;Min_cycle;Max_cycle;Signal;HPM_P1;HPM_P2
2021/05/13 00:02:12;;;;;;;14.43;5.20;;;;;;;;;;747323;186;918271;-71
2021/05/13 00:04:38;;;;;;;7.70;5.10;;;;;;;;;;746369;184;917464;-71
2021/05/13 00:07:03;;;;;;;10.10;4.90;;;;;;;;;;743855;185;920510;-71
2021/05/13 00:09:31;;;;;;;6.77;5.47;;;;;;;;;;747563;185;918347;-70
2021/05/13 00:11:57;;;;;;;5.83;5.23;;;;;;;;;;745368;186;916816;-73
2021/05/13 00:14:22;;;;;;;8.17;5.90;;;;;;;;;;742978;185;916810;-71
2021/05/13 00:16:48;;;;;;;8.17;6.40;;;;;;;;;;743642;186;919570;-71
2021/05/13 00:19:14;;;;;;;7.13;5.30;;;;;;;;;;747608;185;913831;-71
2021/05/13 00:21:40;;;;;;;7.70;5.90;;;;;;;;;;745919;185;919235;-71
2021/05/13 00:24:06;;;;;;;11.17;7.73;;;;;;;;;;741930;186;920083;-71
2021/05/13 00:26:36;;;;;;;8.07;5.73;;;;;;;;;;749338;187;919563;-70
2021/05/13 00:29:00;;;;;;;7.73;5.90;;;;;;;;;;743980;185;1098824;-71
2021/05/13 00:31:26;;;;;;;6.43;5.40;;;;;;;;;;744429;187;920174;-70
2021/05/13 00:33:52;;;;;;;13.83;6.00;;;;;;;;;;742541;185;918491;-71
2021/05/13 00:36:17;;;;;;;7.90;6.07;;;;;;;;;;743001;186;917679;-71
2021/05/13 00:38:43;;;;;;;8.80;5.87;;;;;;;;;;740143;187;919707;-72
2021/05/13 00:41:09;;;;;;;8.63;6.37;;;;;;;;;;744477;186;919052;-71
2021/05/13 00:43:35;;;;;;;8.00;6.70;;;;;;;;;;749869;186;885207;-70
2021/05/13 00:46:01;;;;;;;7.80;6.60;;;;;;;;;;744499;185;923250;-70
2021/05/13 00:48:33;;;;;;;7.43;5.70;;;;;;;;;;741740;185;923019;-72
2021/05/13 00:50:53;;;;;;;8.87;6.70;;;;;;;;;;747974;186;921671;-71
2021/05/13 00:53:18;;;;;;;10.07;6.20;;;;;;;;;;736936;187;2025192;-71
2021/05/13 00:55:44;;;;;;;9.00;6.43;;;;;;;;;;744414;187;715891;-71
2021/05/13 00:58:11;;;;;;;10.18;6.50;;;;;;;;;;751546;185;626749;-70
2021/05/13 01:00:42;;;;;;;9.10;6.50;;;;;;;;;;755704;182;616331;-70
2021/05/13 01:03:03;;;;;;;10.13;7.87;;;;;;;;;;744768;185;912686;-71
2021/05/13 01:05:29;;;;;;;8.60;7.10;;;;;;;;;;740996;184;920109;-71
2021/05/13 01:07:55;;;;;;;10.67;7.17;;;;;;;;;;753076;186;918501;-70
2021/05/13 01:10:22;;;;;;;8.73;7.83;;;;;;;;;;746346;186;914330;-71
2021/05/13 01:12:47;;;;;;;11.73;8.50;;;;;;;;;;745355;186;913702;-71
2021/05/13 01:17:55;;;;;;;10.70;8.40;;;;;;;;;;748215;186;919534;-71
2021/05/13 01:20:11;;;;;;;12.00;8.10;;;;;;;;;;744685;185;910211;-71
2021/05/13 01:22:37;;;;;;;12.43;8.77;;;;;;;;;;744627;185;919476;-70
2021/05/13 01:25:03;;;;;;;13.33;8.70;;;;;;;;;;746422;185;918519;-70
2021/05/13 01:27:28;;;;;;;10.10;8.77;;;;;;;;;;744443;185;919387;-72
2021/05/13 01:29:58;;;;;;;10.70;8.53;;;;;;;;;;743558;185;918224;-71
2021/05/13 01:32:22;;;;;;;10.47;8.50;;;;;;;;;;749564;186;900389;-70
2021/05/13 01:34:48;;;;;;;12.47;9.10;;;;;;;;;;746647;185;912118;-70
2021/05/13 01:37:14;;;;;;;9.33;7.63;;;;;;;;;;748395;185;650815;-71
2021/05/13 01:39:40;;;;;;;12.57;9.47;;;;;;;;;;748315;186;914575;-70
2021/05/13 01:42:06;;;;;;;12.13;10.70;;;;;;;;;;746016;185;1014474;-70
2021/05/13 01:44:32;;;;;;;17.67;12.07;;;;;;;;;;748513;185;619104;-71
2021/05/13 01:46:58;;;;;;;13.27;10.93;;;;;;;;;;745515;187;668490;-70
2021/05/13 01:49:24;;;;;;;16.67;12.17;;;;;;;;;;754033;185;634487;-71
2021/05/13 01:51:49;;;;;;;16.90;13.95;;;;;;;;;;745701;186;907221;-70
2021/05/13 01:54:15;;;;;;;15.90;13.10;;;;;;;;;;748304;185;636402;-71
2021/05/13 01:56:41;;;;;;;22.37;15.63;;;;;;;;;;748916;187;636323;-70
2021/05/13 01:59:07;;;;;;;17.80;15.63;;;;;;;;;;742588;186;929164;-70
2021/05/13 02:01:33;;;;;;;20.30;15.43;;;;;;;;;;740894;186;995980;-69
2021/05/13 02:03:59;;;;;;;21.67;16.20;;;;;;;;;;748107;187;919093;-69
2021/05/13 02:06:25;;;;;;;21.07;17.40;;;;;;;;;;742387;186;920305;-70
2021/05/13 02:08:50;;;;;;;22.03;18.07;;;;;;;;;;742569;185;919249;-69
2021/05/13 02:11:16;;;;;;;23.97;18.43;;;;;;;;;;745050;186;904792;-69
2021/05/13 02:13:42;;;;;;;20.23;16.43;;;;;;;;;;748255;186;918907;-70
2021/05/13 02:16:08;;;;;;;26.67;20.87;;;;;;;;;;743595;187;919302;-72
2021/05/13 02:18:34;;;;;;;23.63;19.40;;;;;;;;;;744454;184;919170;-70
2021/05/13 02:21:00;;;;;;;24.50;18.60;;;;;;;;;;749884;187;917511;-69
2021/05/13 02:23:25;;;;;;;23.27;17.80;;;;;;;;;;742296;185;979394;-69
2021/05/13 02:25:51;;;;;;;26.33;19.80;;;;;;;;;;744294;187;918889;-71
2021/05/13 02:28:17;;;;;;;23.10;18.53;;;;;;;;;;748195;186;919502;-68
2021/05/13 02:30:43;;;;;;;23.97;19.07;;;;;;;;;;744166;186;920090;-71
2021/05/13 02:33:09;;;;;;;25.67;20.30;;;;;;;;;;741957;185;919766;-69
2021/05/13 02:35:35;;;;;;;23.17;18.40;;;;;;;;;;745120;185;919692;-67
2021/05/13 02:38:01;;;;;;;20.13;18.03;;;;;;;;;;743285;187;919294;-70
2021/05/13 02:40:26;;;;;;;20.93;17.37;;;;;;;;;;745059;186;933382;-69
2021/05/13 02:42:52;;;;;;;27.23;17.00;;;;;;;;;;741679;185;917306;-72
2021/05/13 02:45:18;;;;;;;19.27;15.40;;;;;;;;;;748898;188;918888;-70
2021/05/13 02:47:44;;;;;;;18.10;14.60;;;;;;;;;;743887;186;918543;-70
2021/05/13 02:50:10;;;;;;;19.53;17.33;;;;;;;;;;742784;184;919735;-69
2021/05/13 02:52:36;;;;;;;19.43;15.43;;;;;;;;;;748536;187;920538;-69
2021/05/13 02:55:02;;;;;;;21.73;15.50;;;;;;;;;;743549;185;919352;-70
2021/05/13 02:57:28;;;;;;;21.90;15.37;;;;;;;;;;743680;186;921285;-68
2021/05/13 03:00:02;;;;;;;17.93;15.10;;;;;;;;;;747363;186;918453;-71
2021/05/13 03:02:20;;;;;;;21.47;17.20;;;;;;;;;;742445;187;919232;-70
2021/05/13 03:04:46;;;;;;;22.83;16.87;;;;;;;;;;739755;185;1201954;-69
2021/05/13 03:07:12;;;;;;;21.33;15.47;;;;;;;;;;745550;185;920675;-69
2021/05/13 03:09:41;;;;;;;22.03;17.93;;;;;;;;;;749777;183;913716;-69
2021/05/13 03:12:04;;;;;;;18.37;15.47;;;;;;;;;;745258;185;920132;-68
2021/05/13 03:14:30;;;;;;;26.50;15.50;;;;;;;;;;741381;185;916156;-68
2021/05/13 03:16:56;;;;;;;21.07;16.90;;;;;;;;;;748348;186;917563;-69
2021/05/13 03:19:29;;;;;;;22.80;17.10;;;;;;;;;;743592;187;913872;-68
2021/05/13 03:21:49;;;;;;;23.90;18.43;;;;;;;;;;744210;185;917557;-69
2021/05/13 03:24:23;;;;;;;18.90;16.40;;;;;;;;;;748677;185;914803;-68
2021/05/13 03:26:56;;;;;;;20.57;17.53;;;;;;;;;;741221;187;920525;-69
2021/05/13 03:29:08;;;;;;;19.20;16.30;;;;;;;;;;742967;185;918574;-71
2021/05/13 03:31:34;;;;;;;18.23;16.30;;;;;;;;;;743803;185;913106;-69
2021/05/13 03:33:59;;;;;;;20.10;16.00;;;;;;;;;;751667;185;910469;-69
2021/05/13 03:36:25;;;;;;;19.83;15.87;;;;;;;;;;742382;186;916855;-69
2021/05/13 03:38:51;;;;;;;19.67;16.45;;;;;;;;;;746744;184;914432;-69
2021/05/13 03:41:17;;;;;;;19.57;15.57;;;;;;;;;;748877;186;908043;-69
2021/05/13 03:43:43;;;;;;;19.63;15.70;;;;;;;;;;746101;186;917909;-69
2021/05/13 03:46:09;;;;;;;20.50;15.73;;;;;;;;;;744038;185;918718;-69
2021/05/13 03:48:35;;;;;;;17.67;15.60;;;;;;;;;;749398;183;918280;-69
2021/05/13 03:51:00;;;;;;;20.40;15.13;;;;;;;;;;740724;185;1201121;-69
2021/05/13 03:53:26;;;;;;;24.17;14.63;;;;;;;;;;745963;185;919664;-69
2021/05/13 03:55:53;;;;;;;21.67;17.73;;;;;;;;;;741964;186;919205;-69
2021/05/13 03:58:20;;;;;;;27.80;16.77;;;;;;;;;;744562;185;918506;-71
2021/05/13 04:01:10;;;;;;;20.67;16.80;;;;;;;;;;743398;186;919380;-71
2021/05/13 04:03:27;;;;;;;22.80;18.27;;;;;;;;;;742566;186;928628;-69
2021/05/13 04:05:53;;;;;;;24.23;21.60;;;;;;;;;;743869;185;912521;-70
2021/05/13 04:08:19;;;;;;;26.10;20.90;;;;;;;;;;746338;184;946419;-70
2021/05/13 04:10:45;;;;;;;28.87;24.20;;;;;;;;;;745923;186;919297;-69
2021/05/13 04:13:11;;;;;;;28.00;22.30;;;;;;;;;;737221;184;2183297;-70
2021/05/13 04:15:36;;;;;;;24.73;19.73;;;;;;;;;;748662;186;919126;-70
2021/05/13 04:18:02;;;;;;;23.70;18.17;;;;;;;;;;741872;184;918993;-69
2021/05/13 04:20:28;;;;;;;23.33;19.10;;;;;;;;;;744678;185;919213;-69
2021/05/13 04:22:54;;;;;;;23.00;19.67;;;;;;;;;;741990;185;941612;-69
2021/05/13 04:25:20;;;;;;;22.17;17.40;;;;;;;;;;748314;186;918726;-69
2021/05/13 04:27:47;;;;;;;21.50;17.83;;;;;;;;;;744964;185;918521;-69
2021/05/13 04:30:12;;;;;;;36.13;32.50;;;;;;;;;;744318;185;908648;-68
2021/05/13 04:32:38;;;;;;;20.27;17.13;;;;;;;;;;747516;185;993083;-70
2021/05/13 04:35:04;;;;;;;21.37;17.00;;;;;;;;;;744153;186;931256;-70
2021/05/13 04:37:30;;;;;;;18.80;15.48;;;;;;;;;;742264;186;1002724;-69
2021/05/13 04:39:56;;;;;;;23.90;18.83;;;;;;;;;;749883;185;919319;-70
2021/05/13 04:42:22;;;;;;;20.20;16.23;;;;;;;;;;745790;185;919137;-70
2021/05/13 04:44:48;;;;;;;25.10;19.73;;;;;;;;;;745774;185;911941;-70
2021/05/13 04:47:30;;;;;;;24.40;19.17;;;;;;;;;;749282;186;886442;-70
2021/05/13 04:49:55;;;;;;;25.00;18.27;;;;;;;;;;748111;186;919909;-68
2021/05/13 04:52:21;;;;;;;26.20;18.00;;;;;;;;;;744445;185;919398;-68
2021/05/13 04:54:48;;;;;;;22.07;17.60;;;;;;;;;;744013;185;921797;-68
2021/05/13 04:57:14;;;;;;;20.97;18.20;;;;;;;;;;744445;185;919088;-68
2021/05/13 04:59:40;;;;;;;22.73;17.60;;;;;;;;;;746241;186;1322346;-68
2021/05/13 05:02:06;;;;;;;23.13;17.23;;;;;;;;;;746547;188;924149;-68
2021/05/13 05:04:32;;;;;;;23.27;16.30;;;;;;;;;;739820;184;1344785;-68
2021/05/13 05:06:57;;;;;;;26.20;18.60;;;;;;;;;;747415;187;918502;-70
2021/05/13 05:09:23;;;;;;;26.70;21.30;;;;;;;;;;742269;186;918497;-67
2021/05/13 05:11:50;;;;;;;21.20;18.90;;;;;;;;;;744467;186;920349;-68
2021/05/13 05:14:17;;;;;;;22.67;17.87;;;;;;;;;;747963;185;919393;-67
2021/05/13 05:16:41;;;;;;;27.57;19.50;;;;;;;;;;748458;184;648991;-68
2021/05/13 05:19:07;;;;;;;24.90;20.07;;;;;;;;;;743709;185;1083355;-67
2021/05/13 05:21:33;;;;;;;27.57;20.80;;;;;;;;;;747936;186;622439;-65
2021/05/13 05:23:59;;;;;;;23.43;17.50;;;;;;;;;;748186;185;918966;-68
2021/05/13 05:26:25;;;;;;;21.50;17.40;;;;;;;;;;746398;185;919351;-66
2021/05/13 05:28:50;;;;;;;34.77;24.20;;;;;;;;;;744315;186;920124;-66
2021/05/13 05:31:16;;;;;;;33.70;25.20;;;;;;;;;;745951;187;919015;-65
2021/05/13 05:33:42;;;;;;;41.73;26.70;;;;;;;;;;742815;185;1019921;-67
2021/05/13 05:36:08;;;;;;;47.73;28.27;;;;;;;;;;741871;187;918242;-65
2021/05/13 05:38:34;;;;;;;28.00;21.73;;;;;;;;;;749228;187;919521;-65
2021/05/13 05:41:00;;;;;;;25.83;20.73;;;;;;;;;;741620;184;918990;-66
2021/05/13 05:43:26;;;;;;;31.33;21.27;;;;;;;;;;745309;185;919308;-65
2021/05/13 05:45:52;;;;;;;34.58;26.95;;;;;;;;;;746433;185;919397;-65
2021/05/13 05:48:18;;;;;;;28.50;23.53;;;;;;;;;;747148;184;919625;-65
2021/05/13 05:50:44;;;;;;;23.17;19.33;;;;;;;;;;741532;185;919242;-65
2021/05/13 05:53:10;;;;;;;25.67;20.10;;;;;;;;;;743658;185;955638;-66
2021/05/13 05:55:35;;;;;;;22.93;17.90;;;;;;;;;;749312;186;918745;-67
2021/05/13 05:58:01;;;;;;;37.33;30.00;;;;;;;;;;748438;184;920551;-66
2021/05/13 06:00:27;;;;;;;36.33;25.83;;;;;;;;;;744652;185;921423;-67
2021/05/13 06:02:53;;;;;;;46.00;33.97;;;;;;;;;;751695;185;627214;-67
2021/05/13 06:05:19;;;;;;;51.33;26.90;;;;;;;;;;748037;185;628934;-67
2021/05/13 06:07:45;;;;;;;26.80;19.80;;;;;;;;;;744965;186;704079;-67
2021/05/13 06:10:11;;;;;;;31.23;18.87;;;;;;;;;;751876;186;623091;-69
2021/05/13 06:12:37;;;;;;;24.73;18.53;;;;;;;;;;745049;185;622695;-67
2021/05/13 06:15:04;;;;;;;26.77;18.43;;;;;;;;;;746361;185;634396;-66
2021/05/13 06:17:30;;;;;;;30.23;20.90;;;;;;;;;;745357;186;615027;-67
2021/05/13 06:20:00;;;;;;;24.47;18.93;;;;;;;;;;752406;184;637096;-67
2021/05/13 06:22:21;;;;;;;29.03;19.30;;;;;;;;;;747751;185;628205;-66
2021/05/13 06:24:47;;;;;;;25.73;18.80;;;;;;;;;;748491;186;630712;-68
2021/05/13 06:27:13;;;;;;;27.40;18.97;;;;;;;;;;748040;185;917059;-66
2021/05/13 06:29:39;;;;;;;31.60;21.77;;;;;;;;;;746772;186;625833;-68
2021/05/13 06:32:05;;;;;;;25.30;18.17;;;;;;;;;;744657;186;676219;-67
2021/05/13 06:34:31;;;;;;;22.90;18.10;;;;;;;;;;751163;185;628959;-68
2021/05/13 06:36:57;;;;;;;26.73;18.00;;;;;;;;;;747321;185;631853;-69
2021/05/13 06:39:22;;;;;;;28.20;19.23;;;;;;;;;;746347;185;624341;-68
2021/05/13 06:41:48;;;;;;;25.20;18.93;;;;;;;;;;746312;187;616897;-67
2021/05/13 06:44:14;;;;;;;28.23;18.17;;;;;;;;;;747128;185;623041;-69
2021/05/13 06:46:40;;;;;;;22.70;17.80;;;;;;;;;;747091;185;643131;-68
2021/05/13 06:49:06;;;;;;;26.17;17.60;;;;;;;;;;736486;185;1773570;-68
2021/05/13 06:51:32;;;;;;;25.03;18.20;;;;;;;;;;750892;186;618280;-68
2021/05/13 06:53:58;;;;;;;24.17;19.73;;;;;;;;;;744884;185;617896;-68
2021/05/13 06:56:24;;;;;;;27.10;18.07;;;;;;;;;;747256;185;625644;-69
2021/05/13 06:58:49;;;;;;;28.37;19.67;;;;;;;;;;749189;187;628318;-69
2021/05/13 07:01:15;;;;;;;23.47;17.50;;;;;;;;;;751351;185;621675;-68
2021/05/13 07:03:42;;;;;;;21.87;16.83;;;;;;;;;;746729;185;640617;-69
2021/05/13 07:06:07;;;;;;;23.50;16.73;;;;;;;;;;752130;186;621788;-69
2021/05/13 07:08:33;;;;;;;21.00;16.83;;;;;;;;;;747225;186;675047;-69
2021/05/13 07:10:59;;;;;;;22.20;18.10;;;;;;;;;;747716;186;647832;-69
2021/05/13 07:13:24;;;;;;;29.77;18.13;;;;;;;;;;747843;184;638949;-68
2021/05/13 07:15:50;;;;;;;21.80;16.13;;;;;;;;;;751527;186;628169;-70
2021/05/13 07:18:16;;;;;;;23.50;16.20;;;;;;;;;;748681;186;632629;-69
2021/05/13 07:20:42;;;;;;;22.57;18.07;;;;;;;;;;745745;186;643693;-68
2021/05/13 07:23:08;;;;;;;23.50;17.10;;;;;;;;;;752507;186;617325;-69
2021/05/13 07:25:33;;;;;;;19.20;15.03;;;;;;;;;;747746;185;627237;-68
2021/05/13 07:27:59;;;;;;;22.58;17.45;;;;;;;;;;747868;187;714757;-69
2021/05/13 07:30:25;;;;;;;22.23;17.47;;;;;;;;;;749727;186;664975;-69
2021/05/13 07:32:51;;;;;;;21.70;17.07;;;;;;;;;;745875;185;928637;-69
2021/05/13 07:35:17;;;;;;;22.47;16.60;;;;;;;;;;742839;185;918835;-69
2021/05/13 07:37:43;;;;;;;21.73;15.20;;;;;;;;;;748535;187;617213;-69
2021/05/13 07:40:09;;;;;;;19.10;14.60;;;;;;;;;;752429;184;976694;-68
2021/05/13 07:42:35;;;;;;;20.60;15.50;;;;;;;;;;742440;187;919693;-68
2021/05/13 07:45:01;;;;;;;16.73;13.50;;;;;;;;;;740368;184;919147;-69
2021/05/13 07:47:28;;;;;;;25.00;17.83;;;;;;;;;;749265;186;918477;-69
2021/05/13 07:49:53;;;;;;;20.40;15.33;;;;;;;;;;745158;185;923064;-69
2021/05/13 07:52:20;;;;;;;19.30;15.27;;;;;;;;;;742852;187;1118281;-69
2021/05/13 07:54:46;;;;;;;21.37;15.90;;;;;;;;;;751345;186;616719;-69
2021/05/13 07:57:12;;;;;;;20.63;15.80;;;;;;;;;;742333;185;918941;-69
2021/05/13 07:59:37;;;;;;;25.25;17.15;;;;;;;;;;742928;185;919510;-69
2021/05/13 08:02:05;;;;;;;18.70;15.70;;;;;;;;;;741042;186;2557693;-68
2021/05/13 08:04:31;;;;;;;20.10;15.47;;;;;;;;;;751890;184;869362;-69
2021/05/13 08:06:57;;;;;;;20.25;15.43;;;;;;;;;;741198;186;919340;-68
2021/05/13 08:09:23;;;;;;;19.07;14.87;;;;;;;;;;742319;187;918591;-70
2021/05/13 08:11:48;;;;;;;20.73;14.03;;;;;;;;;;748705;186;919572;-69
2021/05/13 08:14:14;;;;;;;18.23;16.20;;;;;;;;;;745603;184;919121;-69
2021/05/13 08:16:40;;;;;;;22.30;16.93;;;;;;;;;;744767;185;936370;-70
2021/05/13 08:19:07;;;;;;;17.93;14.50;;;;;;;;;;750155;184;919623;-69
2021/05/13 08:21:32;;;;;;;24.13;17.73;;;;;;;;;;745121;186;918264;-69
2021/05/13 08:23:58;;;;;;;23.43;18.20;;;;;;;;;;747401;185;916021;-69
2021/05/13 08:26:26;;;;;;;29.20;18.42;;;;;;;;;;744924;186;918966;-70
2021/05/13 08:28:50;;;;;;;20.13;16.37;;;;;;;;;;745398;187;916992;-69
2021/05/13 08:31:16;;;;;;;27.03;17.47;;;;;;;;;;744898;185;919699;-69
2021/05/13 08:33:43;;;;;;;21.87;16.65;;;;;;;;;;744841;185;917797;-68
2021/05/13 08:36:07;;;;;;;22.87;17.63;;;;;;;;;;749867;186;919936;-68
2021/05/13 08:38:33;;;;;;;21.47;16.50;;;;;;;;;;744309;184;918936;-69
2021/05/13 08:40:59;;;;;;;23.10;16.60;;;;;;;;;;749251;185;711780;-68
2021/05/13 08:43:25;;;;;;;24.20;17.77;;;;;;;;;;745606;185;1274767;-68
2021/05/13 08:45:52;;;;;;;22.87;17.80;;;;;;;;;;746759;186;911758;-68
2021/05/13 08:48:17;;;;;;;22.40;17.47;;;;;;;;;;743555;187;918582;-68
2021/05/13 08:50:42;;;;;;;26.87;18.83;;;;;;;;;;749922;185;920860;-68
2021/05/13 08:53:08;;;;;;;27.57;18.83;;;;;;;;;;744290;185;918851;-68
2021/05/13 08:55:35;;;;;;;28.23;18.03;;;;;;;;;;742050;187;918668;-67
2021/05/13 08:58:00;;;;;;;25.73;16.50;;;;;;;;;;741844;185;917403;-67
2021/05/13 09:00:26;;;;;;;30.00;19.07;;;;;;;;;;749193;186;920444;-67
2021/05/13 09:02:52;;;;;;;29.23;19.77;;;;;;;;;;740594;186;1112335;-68
2021/05/13 09:05:18;;;;;;;21.43;17.60;;;;;;;;;;743792;185;916245;-68
2021/05/13 09:07:44;;;;;;;21.20;15.77;;;;;;;;;;746739;185;915773;-68
2021/05/13 09:10:11;;;;;;;30.17;20.48;;;;;;;;;;742653;187;916784;-67
2021/05/13 09:12:37;;;;;;;24.77;17.77;;;;;;;;;;744197;186;915998;-68
2021/05/13 09:15:19;;;;;;;38.90;21.13;;;;;;;;;;746314;186;915799;-68
2021/05/13 09:17:44;;;;;;;29.37;21.23;;;;;;;;;;739211;188;2349290;-67
2021/05/13 09:20:16;;;;;;;31.27;20.33;;;;;;;;;;741354;184;919121;-68
2021/05/13 09:22:43;;;;;;;30.83;18.67;;;;;;;;;;743483;185;919372;-68
2021/05/13 09:25:10;;;;;;;27.90;20.37;;;;;;;;;;740748;184;922980;-68
2021/05/13 09:27:34;;;;;;;27.80;19.63;;;;;;;;;;748837;186;919179;-68
2021/05/13 09:30:01;;;;;;;29.30;19.53;;;;;;;;;;745993;185;918348;-68
2021/05/13 09:32:26;;;;;;;22.73;18.70;;;;;;;;;;747843;185;919261;-68
2021/05/13 09:34:52;;;;;;;28.43;19.23;;;;;;;;;;748245;185;910092;-67
2021/05/13 09:37:18;;;;;;;27.63;19.17;;;;;;;;;;743441;185;922795;-69
2021/05/13 09:39:44;;;;;;;28.50;19.40;;;;;;;;;;742385;186;911230;-70
2021/05/13 09:42:10;;;;;;;28.37;20.00;;;;;;;;;;744884;185;919990;-68
2021/05/13 09:44:36;;;;;;;36.47;22.00;;;;;;;;;;748398;185;918490;-68
2021/05/13 09:47:08;;;;;;;31.13;20.80;;;;;;;;;;742842;186;998572;-68
2021/05/13 09:49:33;;;;;;;33.50;20.60;;;;;;;;;;742459;185;917935;-68
2021/05/13 09:51:59;;;;;;;25.63;18.30;;;;;;;;;;748536;186;912899;-68
2021/05/13 09:54:26;;;;;;;25.57;17.90;;;;;;;;;;745774;185;918532;-69
2021/05/13 09:56:54;;;;;;;26.77;19.47;;;;;;;;;;745368;187;917965;-68
2021/05/13 09:59:27;;;;;;;34.47;18.10;;;;;;;;;;745800;187;919329;-66
2021/05/13 10:01:54;;;;;;;20.63;15.90;;;;;;;;;;750265;186;615262;-68
2021/05/13 10:04:20;;;;;;;23.80;15.93;;;;;;;;;;747099;187;626387;-68
2021/05/13 10:06:46;;;;;;;23.23;18.10;;;;;;;;;;743720;185;918910;-67
2021/05/13 10:09:13;;;;;;;29.10;18.92;;;;;;;;;;745796;185;920717;-69
2021/05/13 10:11:39;;;;;;;24.40;17.80;;;;;;;;;;750211;184;919236;-67
2021/05/13 10:14:05;;;;;;;23.57;17.40;;;;;;;;;;743677;185;919236;-67
2021/05/13 10:16:31;;;;;;;23.40;15.87;;;;;;;;;;740166;185;1030804;-65
2021/05/13 10:18:57;;;;;;;24.57;16.07;;;;;;;;;;750453;185;919543;-67
2021/05/13 10:21:22;;;;;;;23.30;16.47;;;;;;;;;;742457;187;920270;-68
2021/05/13 10:23:49;;;;;;;22.07;15.53;;;;;;;;;;744398;186;920543;-67
2021/05/13 10:26:20;;;;;;;25.33;16.40;;;;;;;;;;746609;186;919683;-71
2021/05/13 10:28:46;;;;;;;20.07;15.40;;;;;;;;;;748482;185;918591;-67
2021/05/13 10:31:12;;;;;;;18.80;14.77;;;;;;;;;;739243;185;1223554;-67
2021/05/13 10:33:46;;;;;;;19.30;15.17;;;;;;;;;;743057;186;918994;-67
2021/05/13 10:36:11;;;;;;;17.20;14.67;;;;;;;;;;745248;185;944967;-68
2021/05/13 10:38:37;;;;;;;29.20;13.97;;;;;;;;;;744799;186;917879;-67
2021/05/13 10:41:03;;;;;;;21.00;12.48;;;;;;;;;;747088;185;921782;-68
2021/05/13 10:43:29;;;;;;;20.17;14.17;;;;;;;;;;743669;185;919146;-68
2021/05/13 10:45:56;;;;;;;18.97;14.73;;;;;;;;;;746014;187;919210;-68
2021/05/13 10:48:22;;;;;;;20.53;13.87;;;;;;;;;;742997;185;920299;-68
2021/05/13 10:50:49;;;;;;;27.63;15.93;;;;;;;;;;742710;186;919151;-68
2021/05/13 10:53:21;;;;;;;20.83;14.83;;;;;;;;;;747653;185;920085;-68
2021/05/13 10:55:47;;;;;;;21.50;15.20;;;;;;;;;;744400;185;919341;-68
2021/05/13 10:58:13;;;;;;;24.17;17.10;;;;;;;;;;737547;186;1615434;-68
2021/05/13 11:00:38;;;;;;;23.00;16.43;;;;;;;;;;740930;186;1182960;-67
2021/05/13 11:03:04;;;;;;;27.50;17.80;;;;;;;;;;747338;186;919321;-69
2021/05/13 11:05:38;;;;;;;24.20;18.10;;;;;;;;;;747561;186;882503;-68
2021/05/13 11:08:00;;;;;;;21.25;16.67;;;;;;;;;;744698;185;919150;-69
2021/05/13 11:10:31;;;;;;;20.87;16.10;;;;;;;;;;748415;187;919375;-67
2021/05/13 11:12:57;;;;;;;24.10;15.93;;;;;;;;;;746465;187;915817;-67
2021/05/13 11:15:27;;;;;;;22.37;15.80;;;;;;;;;;743323;186;921267;-67
2021/05/13 11:18:06;;;;;;;16.00;12.30;;;;;;;;;;744727;184;803638;-71
2021/05/13 11:20:34;;;;;;;19.93;14.07;;;;;;;;;;743894;187;919487;-69
2021/05/13 11:23:03;;;;;;;13.82;11.32;;;;;;;;;;748354;185;912392;-70
2021/05/13 11:25:33;;;;;;;17.70;13.37;;;;;;;;;;748493;185;626896;-68
2021/05/13 11:27:59;;;;;;;23.63;14.00;;;;;;;;;;741588;186;919411;-69
2021/05/13 11:30:25;;;;;;;15.50;12.37;;;;;;;;;;744055;185;910987;-68
2021/05/13 11:32:51;;;;;;;16.50;13.60;;;;;;;;;;752685;186;632730;-69
2021/05/13 11:35:18;;;;;;;15.45;12.23;;;;;;;;;;742662;185;920828;-67
2021/05/13 11:37:48;;;;;;;13.70;12.07;;;;;;;;;;748064;184;632561;-67
2021/05/13 11:40:15;;;;;;;19.10;12.60;;;;;;;;;;748690;185;676724;-67
2021/05/13 11:42:41;;;;;;;17.23;12.60;;;;;;;;;;742560;186;919167;-68
2021/05/13 11:45:07;;;;;;;16.50;13.00;;;;;;;;;;741958;184;919459;-67
2021/05/13 11:47:33;;;;;;;20.77;13.43;;;;;;;;;;743986;185;917833;-69
2021/05/13 11:49:58;;;;;;;18.27;13.93;;;;;;;;;;747315;184;919061;-68
2021/05/13 11:52:24;;;;;;;15.20;12.30;;;;;;;;;;746170;185;920062;-68
2021/05/13 11:54:50;;;;;;;19.43;11.57;;;;;;;;;;745547;184;918794;-68
2021/05/13 11:57:16;;;;;;;14.40;12.40;;;;;;;;;;752642;186;918830;-68
2021/05/13 11:59:42;;;;;;;17.60;12.40;;;;;;;;;;746948;185;919682;-67
2021/05/13 12:02:08;;;;;;;15.95;12.05;;;;;;;;;;744438;186;943912;-68
2021/05/13 12:04:35;;;;;;;16.53;12.30;;;;;;;;;;748064;186;919200;-68
2021/05/13 12:07:01;;;;;;;17.03;11.60;;;;;;;;;;746918;186;886234;-68
2021/05/13 12:09:27;;;;;;;14.23;10.50;;;;;;;;;;747967;186;625311;-68
2021/05/13 12:11:53;;;;;;;14.00;10.13;;;;;;;;;;746251;186;634139;-67
2021/05/13 12:14:34;;;;;;;17.30;10.87;;;;;;;;;;750398;186;1005687;-67
2021/05/13 12:16:59;;;;;;;15.77;11.97;;;;;;;;;;746327;186;918794;-69
2021/05/13 12:19:25;;;;;;;11.57;9.27;;;;;;;;;;744056;185;1021566;-69
2021/05/13 12:21:52;;;;;;;14.50;11.43;;;;;;;;;;745494;186;615410;-67
2021/05/13 12:24:18;;;;;;;16.13;11.10;;;;;;;;;;753430;184;634579;-68
2021/05/13 12:26:44;;;;;;;13.40;9.67;;;;;;;;;;749577;185;711673;-68
2021/05/13 12:29:11;;;;;;;18.93;12.07;;;;;;;;;;748578;186;617581;-67
2021/05/13 12:31:39;;;;;;;13.43;11.23;;;;;;;;;;748985;186;620720;-67
2021/05/13 12:34:04;;;;;;;14.63;10.80;;;;;;;;;;746459;185;634687;-67
2021/05/13 12:36:29;;;;;;;16.63;11.43;;;;;;;;;;745873;185;621428;-68
2021/05/13 12:38:55;;;;;;;16.40;12.20;;;;;;;;;;747834;185;644324;-67
2021/05/13 12:41:25;;;;;;;20.33;13.70;;;;;;;;;;744396;187;623334;-67
2021/05/13 12:43:47;;;;;;;18.20;12.50;;;;;;;;;;746601;186;629921;-67
2021/05/13 12:46:14;;;;;;;16.10;11.70;;;;;;;;;;744398;185;894780;-67
2021/05/13 12:48:40;;;;;;;20.03;12.53;;;;;;;;;;752963;185;624262;-67
2021/05/13 12:51:07;;;;;;;16.03;11.80;;;;;;;;;;750863;185;630543;-67
2021/05/13 12:53:32;;;;;;;21.70;12.30;;;;;;;;;;746912;186;637671;-67
2021/05/13 12:55:58;;;;;;;19.57;13.10;;;;;;;;;;751068;185;725483;-67
2021/05/13 12:58:24;;;;;;;17.73;14.47;;;;;;;;;;745331;184;623219;-67
2021/05/13 13:00:51;;;;;;;22.40;14.07;;;;;;;;;;747156;185;642945;-67
2021/05/13 13:03:17;;;;;;;25.20;14.47;;;;;;;;;;747502;185;623611;-67
2021/05/13 13:05:43;;;;;;;18.73;12.73;;;;;;;;;;756202;184;624127;-67
2021/05/13 13:08:09;;;;;;;12.07;8.40;;;;;;;;;;746269;184;636535;-66
2021/05/13 13:10:45;;;;;;;6.97;5.60;;;;;;;;;;749818;186;645693;-66
2021/05/13 13:13:16;;;;;;;12.10;8.70;;;;;;;;;;748261;186;621309;-66
2021/05/13 13:15:46;;;;;;;13.53;6.53;;;;;;;;;;749991;184;636680;-65
2021/05/13 13:18:09;;;;;;;18.90;5.20;;;;;;;;;;745182;186;626213;-68
2021/05/13 13:20:35;;;;;;;7.90;3.50;;;;;;;;;;748404;186;630547;-66
2021/05/13 13:23:07;;;;;;;7.37;3.93;;;;;;;;;;749323;186;623593;-66
2021/05/13 13:25:33;;;;;;;8.83;3.60;;;;;;;;;;751955;185;616543;-66
2021/05/13 13:27:59;;;;;;;4.47;3.37;;;;;;;;;;739635;183;2061366;-67
2021/05/13 13:30:24;;;;;;;7.17;2.80;;;;;;;;;;749634;185;623625;-67
2021/05/13 13:32:50;;;;;;;8.63;3.63;;;;;;;;;;752084;185;617521;-68
2021/05/13 13:35:22;;;;;;;6.60;3.47;;;;;;;;;;746813;186;649953;-68
2021/05/13 13:37:42;;;;;;;3.67;2.92;;;;;;;;;;745520;186;1021726;-67
2021/05/13 13:40:08;;;;;;;4.00;3.00;;;;;;;;;;749855;185;618283;-68
2021/05/13 13:42:34;;;;;;;5.93;2.33;;;;;;;;;;748355;186;628348;-68
2021/05/13 13:45:00;;;;;;;4.10;3.20;;;;;;;;;;746605;186;623415;-67
2021/05/13 13:47:26;;;;;;;5.00;3.10;;;;;;;;;;750288;186;638320;-67
2021/05/13 13:49:52;;;;;;;6.10;3.00;;;;;;;;;;740918;186;632646;-69
2021/05/13 13:52:18;;;;;;;2.97;2.33;;;;;;;;;;747232;187;619658;-69
2021/05/13 13:54:44;;;;;;;5.17;4.00;;;;;;;;;;744002;185;928356;-69
2021/05/13 13:57:10;;;;;;;4.00;3.30;;;;;;;;;;751767;186;631149;-70
2021/05/13 13:59:36;;;;;;;5.33;3.23;;;;;;;;;;746658;185;619311;-70
2021/05/13 14:02:02;;;;;;;4.40;3.40;;;;;;;;;;747965;187;624581;-69
2021/05/13 14:04:27;;;;;;;5.63;3.67;;;;;;;;;;750441;186;625859;-71
2021/05/13 14:06:53;;;;;;;3.87;3.40;;;;;;;;;;746937;186;628109;-68